UUEE/SVO METAR and TAF weather

Enter ICAO airport designator
Station Type Date Time Source
UUEE METAR 2020/09/18 20:30 UTC NOAA

UUEE 182030Z 31005MPS 9000 -DZ OVC008 07/05 Q1010 R24L/290051 NOSIG


Station Type Date Time Source
UUEE Decoded METAR 2020/09/18 20:30 UTC NOAA

Moscow / Sheremet'Ye , Russia (UUEE) 55-59N 037-30E
Sep 18, 2020 - 04:30 PM EDT / 2020.09.18 2030 UTC
Wind: from the NW (310 degrees) at 11 MPH (10 KT):0
Visibility: 5 mile(s):0
Sky conditions: overcast
Weather: light drizzle
Temperature: 44 F (7 C)
Dew Point: 41 F (5 C)
Relative Humidity: 87%
Pressure (altimeter): 29.83 in. Hg (1010 hPa)
ob: UUEE 182030Z 31005MPS 9000 -DZ OVC008 07/05 Q1010 R24L/290051 NOSIG
cycle: 20

Station Type Date Time Source
UUEE TAF 2020/09/18 21:23 UTC NOAA

TAF UUEE 181957Z 1821/1921 31005MPS 9999 BKN007 TX13/1912Z TN06/1901Z
TEMPO 1821/1909 29008G14MPS -SHRA BKN004 BKN016CB
TEMPO 1909/1915 32008G15MPS

Example: see airport list